createdAt,value
2024-03-23T00:01:21.240Z,33.20
2024-03-23T00:03:52.448Z,31.20
2024-03-23T00:06:21.647Z,32.10
2024-03-23T00:08:50.753Z,34.10
2024-03-23T00:11:22.419Z,32.40
2024-03-23T00:13:49.148Z,33.60
2024-03-23T00:16:25.945Z,36.80
2024-03-23T00:18:54.942Z,32.90
2024-03-23T00:21:24.364Z,32.40
2024-03-23T00:23:51.377Z,31.80
2024-03-23T00:26:18.871Z,34.50
2024-03-23T00:28:45.695Z,32.50
2024-03-23T00:31:17.228Z,30.50
2024-03-23T00:33:47.236Z,33.50
2024-03-23T00:36:16.284Z,32.70
2024-03-23T00:38:43.013Z,34.30
2024-03-23T00:41:12.883Z,32.40
2024-03-23T00:43:40.402Z,36.70
2024-03-23T00:46:07.691Z,33.70
2024-03-23T00:48:35.178Z,35.70
2024-03-23T00:51:02.599Z,38.80
2024-03-23T00:53:29.761Z,33.60
2024-03-23T00:55:56.984Z,29.40
2024-03-23T00:58:23.976Z,31.10
2024-03-23T01:00:51.028Z,30.10
2024-03-23T01:03:18.556Z,35.70
2024-03-23T01:05:45.619Z,31.80
2024-03-23T01:08:12.264Z,34.00
2024-03-23T01:38:34.188Z,33.90
2024-03-23T01:41:03.467Z,32.80
2024-03-23T01:43:32.304Z,34.80
2024-03-23T01:46:01.773Z,33.50
2024-03-23T01:48:29.969Z,33.00
2024-03-23T01:51:00.022Z,33.70
2024-03-23T01:53:31.154Z,31.40
2024-03-23T01:56:02.034Z,34.30
2024-03-23T01:58:29.862Z,36.50
2024-03-23T02:00:59.189Z,31.10
2024-03-23T02:03:30.388Z,28.50
2024-03-23T02:05:59.360Z,30.60
2024-03-23T02:08:30.567Z,34.60
2024-03-23T02:11:03.336Z,33.50
2024-03-23T02:13:32.912Z,32.80
2024-03-23T02:16:00.979Z,32.50
2024-03-23T02:18:28.738Z,34.40
2024-03-23T02:20:58.985Z,29.30
2024-03-23T02:23:27.284Z,30.00
2024-03-23T02:25:55.291Z,32.20
2024-03-23T02:28:23.706Z,28.00
2024-03-23T02:30:53.772Z,30.80
2024-03-23T02:33:21.944Z,29.70
2024-03-23T02:35:50.711Z,34.20
2024-03-23T02:38:20.787Z,33.50
2024-03-23T02:40:51.251Z,27.90
2024-03-23T02:43:21.631Z,28.70
2024-03-23T02:45:55.413Z,29.60
2024-03-23T02:48:23.280Z,30.80
2024-03-23T02:50:51.988Z,31.80
2024-03-23T02:53:20.089Z,30.90
2024-03-23T02:55:48.133Z,27.50
2024-03-23T02:58:16.287Z,27.80
2024-03-23T03:00:44.072Z,28.40
2024-03-23T03:03:12.167Z,34.80
2024-03-23T03:05:41.319Z,26.50
2024-03-23T03:08:09.795Z,29.70
2024-03-23T03:10:38.946Z,29.70
2024-03-23T03:13:07.447Z,28.20
2024-03-23T03:15:35.728Z,29.60
2024-03-23T03:18:06.005Z,29.90
2024-03-23T03:20:33.913Z,29.80
2024-03-23T03:23:02.176Z,33.00
2024-03-23T03:25:30.352Z,30.30
2024-03-23T03:27:58.212Z,29.00
2024-03-23T03:30:27.129Z,27.70
2024-03-23T03:32:56.233Z,25.20
2024-03-23T03:35:26.621Z,27.40
2024-03-23T03:37:54.708Z,25.10
2024-03-23T03:40:22.962Z,30.90
2024-03-23T03:42:53.616Z,29.40
2024-03-23T03:45:21.691Z,27.80
2024-03-23T03:47:54.673Z,27.60
2024-03-23T03:50:23.451Z,29.40
2024-03-23T03:52:53.991Z,26.90
2024-03-23T03:55:24.931Z,28.70
2024-03-23T03:57:53.011Z,27.90
2024-03-23T04:00:21.089Z,28.30
2024-03-23T04:02:49.229Z,25.60
2024-03-23T04:05:21.011Z,27.60
2024-03-23T04:07:51.002Z,28.90
2024-03-23T04:10:19.409Z,26.80
2024-03-23T04:12:48.489Z,27.10
2024-03-23T04:15:16.538Z,28.00
2024-03-23T04:17:44.404Z,25.80
2024-03-23T04:20:14.657Z,28.00
2024-03-23T04:25:20.619Z,27.30
2024-03-23T04:27:50.568Z,27.20
2024-03-23T04:30:18.982Z,27.20
2024-03-23T04:32:47.051Z,29.30
2024-03-23T04:35:15.090Z,30.20
2024-03-23T04:37:42.985Z,22.90
2024-03-23T04:40:12.344Z,27.60
2024-03-23T04:42:40.268Z,26.70
2024-03-23T04:45:08.485Z,26.00
2024-03-23T04:47:41.671Z,26.10
2024-03-23T04:50:11.685Z,25.40
2024-03-23T04:52:39.446Z,22.50
2024-03-23T04:55:07.917Z,22.90
2024-03-23T04:57:38.190Z,21.40
2024-03-23T05:00:18.311Z,28.70
2024-03-23T05:02:48.445Z,23.70
2024-03-23T05:05:16.214Z,21.20
2024-03-23T05:07:47.626Z,24.60
2024-03-23T05:10:15.779Z,24.50
2024-03-23T05:12:48.228Z,21.10
2024-03-23T05:15:18.628Z,19.50
2024-03-23T05:17:46.460Z,20.50
2024-03-23T05:20:21.604Z,24.50
2024-03-23T05:22:50.547Z,24.00
2024-03-23T05:25:19.469Z,23.10
2024-03-23T05:27:47.474Z,24.50
2024-03-23T05:30:20.214Z,24.00
2024-03-23T05:32:52.142Z,21.20
2024-03-23T05:35:20.256Z,19.40
2024-03-23T05:37:52.670Z,21.90
2024-03-23T05:40:20.780Z,21.70
2024-03-23T05:42:48.730Z,20.10
2024-03-23T05:45:19.651Z,18.80
2024-03-23T05:47:51.879Z,20.50
2024-03-23T05:50:19.679Z,20.00
2024-03-23T05:52:47.825Z,22.20
2024-03-23T05:55:17.827Z,22.60
2024-03-23T05:57:46.280Z,21.30
2024-03-23T06:00:18.916Z,22.10
2024-03-23T06:05:15.051Z,22.30
2024-03-23T06:07:43.060Z,19.60
2024-03-23T06:10:11.412Z,21.10
2024-03-23T06:12:39.414Z,23.90
2024-03-23T06:15:19.845Z,27.60
2024-03-23T06:17:51.025Z,22.60
2024-03-23T06:20:21.510Z,23.00
2024-03-23T06:22:49.894Z,23.10
2024-03-23T06:25:17.869Z,20.10
2024-03-23T06:27:46.509Z,21.60
2024-03-23T06:30:14.700Z,22.40
2024-03-23T06:32:42.811Z,21.40
2024-03-23T06:35:10.700Z,20.60
2024-03-23T06:37:39.987Z,22.30
2024-03-23T06:40:12.028Z,21.40
2024-03-23T06:42:40.142Z,16.90
2024-03-23T06:45:09.108Z,20.60
2024-03-23T07:13:55.816Z,21.10
2024-03-23T07:16:24.534Z,22.20
2024-03-23T07:50:16.438Z,15.50
2024-03-23T07:52:44.898Z,15.10
2024-03-23T07:55:12.948Z,14.60
2024-03-23T07:57:41.139Z,11.30
2024-03-23T08:00:09.774Z,11.60
2024-03-23T08:02:41.833Z,15.10
2024-03-23T08:05:10.106Z,12.20
2024-03-23T08:07:37.978Z,14.00
2024-03-23T08:10:08.239Z,13.10
2024-03-23T08:12:39.480Z,14.60
2024-03-23T08:15:12.852Z,13.40
2024-03-23T08:17:41.662Z,14.10
2024-03-23T08:20:10.685Z,12.40
2024-03-23T08:22:43.568Z,13.60
2024-03-23T08:25:12.404Z,13.40
2024-03-23T08:43:47.155Z,10.60
2024-03-23T08:46:30.205Z,13.90
2024-03-23T08:53:37.471Z,15.20
2024-03-23T09:05:20.628Z,12.60
2024-03-23T09:08:37.782Z,10.80
2024-03-23T09:11:41.527Z,13.70
2024-03-23T09:14:17.943Z,13.50
2024-03-23T09:28:29.944Z,14.80
2024-03-23T09:31:15.193Z,15.30
2024-03-23T09:36:44.871Z,13.00
2024-03-23T09:39:28.577Z,12.30
2024-03-23T10:03:50.161Z,10.80
2024-03-23T10:06:28.059Z,10.00
2024-03-23T10:08:56.323Z,12.10
2024-03-23T10:11:28.282Z,10.40
2024-03-23T10:13:59.097Z,10.60
2024-03-23T10:16:28.686Z,9.00
2024-03-23T10:18:56.592Z,10.40
2024-03-23T10:21:24.676Z,8.50
2024-03-23T10:23:52.568Z,8.90
2024-03-23T10:26:28.392Z,10.50
2024-03-23T10:29:08.997Z,9.90
2024-03-23T10:31:39.362Z,7.50
2024-03-23T10:34:10.279Z,9.40
2024-03-23T10:36:58.347Z,9.70
2024-03-23T10:39:28.776Z,7.60
2024-03-23T10:42:29.591Z,6.20
2024-03-23T10:45:11.929Z,9.30
2024-03-23T10:48:15.936Z,7.20
2024-03-23T10:50:47.105Z,7.60
2024-03-23T10:53:16.825Z,9.60
2024-03-23T10:55:47.401Z,8.20
2024-03-23T10:58:40.222Z,7.90
2024-03-23T11:01:17.388Z,8.70
2024-03-23T11:03:49.965Z,9.90
2024-03-23T11:06:42.621Z,8.60
2024-03-23T11:09:38.735Z,6.90
2024-03-23T11:12:45.049Z,10.00
2024-03-23T11:15:13.547Z,9.40
2024-03-23T11:18:13.262Z,8.80
2024-03-23T11:20:41.421Z,8.80
2024-03-23T11:23:30.670Z,9.70
2024-03-23T11:25:58.821Z,9.70
2024-03-23T11:29:12.547Z,11.60
2024-03-23T11:32:58.425Z,8.20
2024-03-23T11:41:02.541Z,9.40
2024-03-23T11:48:07.076Z,8.80
2024-03-23T11:50:42.582Z,8.60
2024-03-23T11:53:15.098Z,11.50
2024-03-23T11:56:04.456Z,10.20
2024-03-23T11:58:33.882Z,9.80
2024-03-23T12:01:04.459Z,9.20
2024-03-23T12:03:34.442Z,7.20
2024-03-23T12:06:08.629Z,9.90
2024-03-23T12:08:44.470Z,8.70
2024-03-23T12:11:17.578Z,8.70
2024-03-23T12:14:07.977Z,9.10
2024-03-23T12:16:35.728Z,8.90
2024-03-23T12:19:07.108Z,10.00
2024-03-23T12:21:35.349Z,10.80
2024-03-23T12:24:05.695Z,10.50
2024-03-23T12:26:58.247Z,11.40
2024-03-23T12:30:15.699Z,8.50
2024-03-23T12:32:44.130Z,9.90
2024-03-23T12:35:13.320Z,9.20
2024-03-23T12:37:41.318Z,9.80
2024-03-23T12:40:09.693Z,9.00
2024-03-23T12:58:00.909Z,7.80
2024-03-23T13:00:29.509Z,11.70
2024-03-23T13:03:02.604Z,10.30
2024-03-23T13:05:34.534Z,9.30
2024-03-23T13:08:02.406Z,9.80
2024-03-23T15:03:07.693Z,8.70
2024-03-23T15:05:34.718Z,7.60
2024-03-23T15:08:03.267Z,9.20
2024-03-23T15:10:36.384Z,9.80
2024-03-23T15:13:05.984Z,11.80
2024-03-23T15:15:44.137Z,9.90
2024-03-23T15:18:25.758Z,12.20
2024-03-23T15:20:56.069Z,8.60
2024-03-23T15:23:23.393Z,8.70
2024-03-23T15:25:59.109Z,10.90
2024-03-23T15:28:49.988Z,12.70
2024-03-23T15:31:18.005Z,11.40
2024-03-23T15:33:45.229Z,14.00
2024-03-23T15:36:12.568Z,13.70
2024-03-23T15:38:41.035Z,16.50
2024-03-23T15:41:08.897Z,12.90
2024-03-23T15:43:36.587Z,11.20
2024-03-23T15:46:15.583Z,13.80
2024-03-23T15:48:47.575Z,14.60
2024-03-23T15:51:15.013Z,13.60
2024-03-23T15:53:43.038Z,11.80
2024-03-23T15:56:13.330Z,12.70
2024-03-23T15:58:41.496Z,9.10
2024-03-23T16:01:11.155Z,6.60
2024-03-23T16:03:38.671Z,6.30
2024-03-23T16:06:08.241Z,6.40
2024-03-23T16:08:37.903Z,5.80
2024-03-23T16:11:12.086Z,5.10
2024-03-23T16:13:40.297Z,4.00
2024-03-23T16:16:08.022Z,4.60
2024-03-23T16:18:40.595Z,5.20
2024-03-23T16:21:08.460Z,5.50
2024-03-23T16:23:41.513Z,4.70
2024-03-23T16:26:10.967Z,3.40
2024-03-23T16:28:38.554Z,4.20
2024-03-23T16:31:12.199Z,6.80
2024-03-23T16:33:53.730Z,8.30
2024-03-23T16:36:26.200Z,4.90
2024-03-23T16:38:53.369Z,5.50
2024-03-23T16:41:20.411Z,4.70
2024-03-23T16:43:47.252Z,6.00
2024-03-23T16:46:16.533Z,5.80
2024-03-23T16:48:48.298Z,6.50
2024-03-23T16:51:15.212Z,5.50
2024-03-23T16:53:41.959Z,5.40
2024-03-23T16:56:09.857Z,5.00
2024-03-23T16:58:41.523Z,3.90
2024-03-23T17:01:20.515Z,3.80
2024-03-23T17:03:54.025Z,4.50
2024-03-23T17:06:23.480Z,4.80
2024-03-23T17:08:50.652Z,5.10
2024-03-23T17:11:19.571Z,6.20
2024-03-23T17:13:54.369Z,6.20
2024-03-23T17:16:21.337Z,6.60
2024-03-23T17:18:50.404Z,6.90
2024-03-23T17:55:21.816Z,5.30
2024-03-23T17:57:48.707Z,5.10
2024-03-23T18:00:16.990Z,4.70
2024-03-23T18:02:43.884Z,4.80
2024-03-23T18:05:16.911Z,4.10
2024-03-23T18:07:44.158Z,3.50
2024-03-23T18:10:11.018Z,4.40
2024-03-23T18:12:38.028Z,5.60
2024-03-23T18:15:05.740Z,4.00
2024-03-23T18:17:37.399Z,5.60
2024-03-23T18:20:06.529Z,3.40
2024-03-23T18:22:33.396Z,4.50
2024-03-23T18:25:00.194Z,3.40
2024-03-23T18:27:26.875Z,3.20
2024-03-23T18:29:55.244Z,4.00
2024-03-23T18:32:32.461Z,3.60
2024-03-23T18:34:59.513Z,2.70
2024-03-23T18:37:28.796Z,3.60
2024-03-23T18:39:55.833Z,5.10
2024-03-23T18:42:22.820Z,6.30
2024-03-23T18:44:56.555Z,4.10
2024-03-23T18:47:23.463Z,5.90
2024-03-23T18:49:51.079Z,4.60
2024-03-23T18:52:22.865Z,5.00
2024-03-23T18:54:50.134Z,4.70
2024-03-23T18:57:16.914Z,6.10
2024-03-23T18:59:46.733Z,3.90
2024-03-23T19:02:13.494Z,5.20
2024-03-23T19:04:40.587Z,3.90
2024-03-23T19:07:07.590Z,4.40
2024-03-23T19:09:37.618Z,5.70
2024-03-23T19:12:08.454Z,4.90
2024-03-23T19:14:41.522Z,4.30
2024-03-23T19:17:08.589Z,4.80
2024-03-23T19:19:35.284Z,5.00
2024-03-23T19:22:04.546Z,3.80
2024-03-23T19:24:31.391Z,5.10
2024-03-23T19:26:58.571Z,3.90
2024-03-23T19:29:25.524Z,4.20
2024-03-23T19:31:52.431Z,5.00
2024-03-23T19:34:19.839Z,4.70
2024-03-23T20:20:15.051Z,4.70
2024-03-23T20:22:42.262Z,4.60
2024-03-23T20:25:10.001Z,5.30
2024-03-23T20:27:37.937Z,4.70
2024-03-23T20:30:07.620Z,4.50
2024-03-23T20:32:37.932Z,5.80
2024-03-23T20:35:06.955Z,4.30
2024-03-23T20:40:08.650Z,4.30
2024-03-23T20:42:36.144Z,4.00
2024-03-23T20:45:03.709Z,7.00
2024-03-23T20:47:30.704Z,5.20
2024-03-23T20:49:57.688Z,4.10
2024-03-23T20:52:24.375Z,7.50
2024-03-23T20:54:51.372Z,6.70
2024-03-23T20:57:18.317Z,5.60
2024-03-23T20:59:48.177Z,7.80
2024-03-23T21:02:14.721Z,9.10
2024-03-23T21:04:41.258Z,8.70
2024-03-23T21:07:08.170Z,11.50
2024-03-23T21:09:35.714Z,9.20
2024-03-23T21:12:07.092Z,8.00
2024-03-23T21:14:34.980Z,4.60
2024-03-23T21:17:02.829Z,5.70
2024-03-23T21:19:29.946Z,6.70
2024-03-23T21:21:56.951Z,4.80
2024-03-23T21:24:26.090Z,5.00
2024-03-23T21:26:53.555Z,5.20
2024-03-23T21:29:21.914Z,4.50
2024-03-23T21:31:51.323Z,3.50
2024-03-23T21:34:18.609Z,3.60
2024-03-23T21:36:45.832Z,4.60
2024-03-23T21:39:16.752Z,4.20
2024-03-23T21:41:48.034Z,4.90
2024-03-23T21:44:15.251Z,6.30
2024-03-23T21:46:42.299Z,5.30
2024-03-23T21:49:11.936Z,6.00
2024-03-23T21:51:38.943Z,5.40
2024-03-23T21:54:06.079Z,8.70
2024-03-23T21:56:33.064Z,6.90
2024-03-23T21:59:00.416Z,7.50
2024-03-23T22:01:27.504Z,9.70
2024-03-23T22:03:54.419Z,8.70
2024-03-23T22:06:21.551Z,7.60
2024-03-23T22:08:48.921Z,6.10
2024-03-23T22:11:15.966Z,7.10
2024-03-23T22:13:43.065Z,7.20
2024-03-23T22:16:12.042Z,6.40
2024-03-23T22:18:39.063Z,6.40
2024-03-23T22:21:05.990Z,7.40
2024-03-23T22:23:33.152Z,4.90
2024-03-23T22:26:01.940Z,7.40
2024-03-23T22:28:29.186Z,5.50
2024-03-23T22:31:00.753Z,6.80
2024-03-23T22:33:28.484Z,8.40
2024-03-23T22:35:56.657Z,5.30
2024-03-23T22:38:24.336Z,8.20
2024-03-23T22:41:04.574Z,6.50
2024-03-23T22:43:33.194Z,6.60
2024-03-23T22:46:05.300Z,6.40
2024-03-23T22:48:34.379Z,5.70
2024-03-23T22:51:04.148Z,7.60
2024-03-23T22:53:34.909Z,8.00
2024-03-23T22:56:04.929Z,8.60
2024-03-23T22:58:31.889Z,6.40
2024-03-23T23:00:59.255Z,7.20
2024-03-23T23:03:30.989Z,6.70
2024-03-23T23:06:06.576Z,5.80
2024-03-23T23:08:37.465Z,6.70
2024-03-23T23:11:05.230Z,8.20
2024-03-23T23:13:32.535Z,8.40
2024-03-23T23:15:59.742Z,6.30
2024-03-23T23:18:26.798Z,5.80
2024-03-23T23:20:54.673Z,7.10
2024-03-23T23:23:24.140Z,6.70
2024-03-23T23:25:53.745Z,6.40
2024-03-23T23:28:20.914Z,6.00
2024-03-23T23:30:58.738Z,8.50
2024-03-23T23:33:25.972Z,7.90
2024-03-23T23:35:53.026Z,11.40
2024-03-23T23:38:20.474Z,9.10
2024-03-23T23:40:47.933Z,8.40
2024-03-23T23:43:15.195Z,8.70
2024-03-23T23:45:43.058Z,11.60
2024-03-23T23:48:12.044Z,8.50
2024-03-23T23:50:41.104Z,6.50
2024-03-23T23:53:10.699Z,8.40
2024-03-23T23:55:38.219Z,6.80
2024-03-23T23:58:05.756Z,10.30
